Time;durP1;ratioP1;P1;durP2;ratioP2;P2;SDS_P1;SDS_P2;PMS_P1;PMS_P2;Temp;Humidity;BMP_temperature;BMP_pressure;BME280_temperature;BME280_humidity;BME280_pressure;Samples;Min_cycle;Max_cycle;Signal;HPM_P1;HPM_P2
2022/05/19 00:01:15;;;;;;;;;;;;;;;22.60;52.25;101286.03;7281495;19;152698;-59
2022/05/19 00:03:42;;;;;;;;;;;;;;;22.60;52.54;101288.03;7280437;19;153153;-59
2022/05/19 00:06:11;;;;;;;;;;;;;;;22.59;52.59;101289.16;7282616;19;151603;-59
2022/05/19 00:08:37;;;;;;;;;;;;;;;22.60;52.23;101293.66;7281646;19;153330;-58
2022/05/19 00:11:06;;;;;;;;;;;;;;;22.61;52.55;101289.69;7280880;19;152820;-59
2022/05/19 00:13:33;;;;;;;;;;;;;;;22.63;52.87;101295.84;7279999;19;151889;-59
2022/05/19 00:16:01;;;;;;;;;;;;;;;22.62;52.63;101299.81;7281057;19;152185;-59
2022/05/19 00:18:27;;;;;;;;;;;;;;;22.62;52.82;101292.19;7286589;19;151993;-58
2022/05/19 00:20:54;;;;;;;;;;;;;;;22.67;52.58;101301.69;7281316;19;153273;-59
2022/05/19 00:23:21;;;;;;;;;;;;;;;22.62;53.09;101297.81;7281292;19;154190;-58
2022/05/19 00:25:48;;;;;;;;;;;;;;;22.62;52.99;101297.81;7279790;19;151627;-58
2022/05/19 00:28:16;;;;;;;;;;;;;;;22.63;53.15;101298.66;7279822;19;153307;-59
2022/05/19 00:30:42;;;;;;;;;;;;;;;22.63;53.16;101301.47;7278496;19;152222;-59
2022/05/19 00:33:09;;;;;;;;;;;;;;;22.66;53.24;101291.56;7277987;19;151853;-58
2022/05/19 00:35:37;;;;;;;;;;;;;;;22.63;53.39;101298.66;7278464;19;152030;-59
2022/05/19 00:38:04;;;;;;;;;;;;;;;22.64;53.55;101297.50;7280611;19;153295;-59
2022/05/19 00:40:31;;;;;;;;;;;;;;;22.65;53.31;101290.72;7288827;19;151650;-58
2022/05/19 00:42:58;;;;;;;;;;;;;;;22.63;53.48;101296.66;7281888;19;153501;-59
2022/05/19 00:45:28;;;;;;;;;;;;;;;22.63;53.42;101293.00;7281431;19;151670;-59
2022/05/19 00:47:57;;;;;;;;;;;;;;;22.62;53.64;101283.72;7278762;19;152152;-59
2022/05/19 00:50:25;;;;;;;;;;;;;;;22.62;53.63;101282.91;7280645;19;153532;-59
2022/05/19 00:52:54;;;;;;;;;;;;;;;22.65;53.69;101278.63;7281793;19;151723;-59
2022/05/19 00:55:25;;;;;;;;;;;;;;;22.63;53.64;101271.31;7281326;19;153527;-58
2022/05/19 00:57:55;;;;;;;;;;;;;;;22.65;53.54;101268.19;7129222;19;2891434;-59
2022/05/19 01:00:23;;;;;;;;;;;;;;;22.66;53.87;101263.41;7283559;19;152006;-59
2022/05/19 01:02:53;;;;;;;;;;;;;;;22.67;53.95;101265.06;7294528;19;153057;-58
2022/05/19 01:05:20;;;;;;;;;;;;;;;22.68;53.90;101269.53;7292019;19;151702;-59
2022/05/19 01:07:54;;;;;;;;;;;;;;;22.66;54.21;101261.44;7289449;19;153601;-59
2022/05/19 01:10:21;;;;;;;;;;;;;;;22.69;54.28;101265.56;7290331;19;154107;-58
2022/05/19 01:12:50;;;;;;;;;;;;;;;22.63;54.16;101260.06;7290433;19;151999;-58
2022/05/19 01:15:17;;;;;;;;;;;;;;;22.66;54.22;101254.97;7289866;19;153285;-59
2022/05/19 01:17:44;;;;;;;;;;;;;;;22.66;54.52;101249.31;7287553;19;154423;-58
2022/05/19 01:20:14;;;;;;;;;;;;;;;22.66;54.78;101263.41;7290098;19;152476;-59
2022/05/19 01:22:49;;;;;;;;;;;;;;;22.66;54.91;101263.41;7289555;19;152758;-58
2022/05/19 01:25:22;;;;;;;;;;;;;;;22.65;54.65;101259.75;7297992;19;153433;-58
2022/05/19 01:27:49;;;;;;;;;;;;;;;22.68;54.67;101258.28;7290326;19;152605;-58
2022/05/19 01:30:16;;;;;;;;;;;;;;;22.70;54.53;101251.22;7290024;19;153515;-58
2022/05/19 01:32:44;;;;;;;;;;;;;;;22.68;54.74;101256.28;7288663;19;151831;-58
2022/05/19 01:35:11;;;;;;;;;;;;;;;22.67;54.59;101243.34;7291067;19;154105;-58
2022/05/19 01:37:38;;;;;;;;;;;;;;;22.68;54.34;101241.38;7288546;19;153281;-58
2022/05/19 01:40:14;;;;;;;;;;;;;;;22.71;54.85;101237.97;7290174;19;151932;-58
2022/05/19 01:42:41;;;;;;;;;;;;;;;22.72;54.79;101239.63;7289051;19;153469;-58
2022/05/19 01:45:09;;;;;;;;;;;;;;;22.70;54.81;101237.13;7290066;19;153291;-58
2022/05/19 01:47:37;;;;;;;;;;;;;;;22.68;54.94;101245.03;7297405;19;151854;-59
2022/05/19 01:50:04;;;;;;;;;;;;;;;22.71;54.60;101241.63;7287249;19;154287;-58
2022/05/19 01:52:35;;;;;;;;;;;;;;;22.70;54.60;101230.66;7289302;19;151671;-58
2022/05/19 01:55:05;;;;;;;;;;;;;;;22.73;54.81;101236.50;7289956;19;152624;-58
2022/05/19 01:57:34;;;;;;;;;;;;;;;22.72;54.51;101237.63;7288054;19;153994;-58
2022/05/19 02:00:04;;;;;;;;;;;;;;;22.75;54.53;101239.00;7289423;19;151764;-59
2022/05/19 02:02:32;;;;;;;;;;;;;;;22.75;54.43;101236.19;7289359;19;153525;-58
2022/05/19 02:05:04;;;;;;;;;;;;;;;22.75;54.68;101244.63;7287980;19;154301;-58
2022/05/19 02:07:33;;;;;;;;;;;;;;;22.75;54.88;101242.66;7297197;19;151723;-59
2022/05/19 02:10:05;;;;;;;;;;;;;;;22.73;54.67;101225.22;7285118;19;152099;-59
2022/05/19 02:12:33;;;;;;;;;;;;;;;22.75;54.82;101230.56;7287682;19;151779;-58
2022/05/19 02:15:03;;;;;;;;;;;;;;;22.73;54.68;101235.66;7289665;19;152624;-58
2022/05/19 02:17:31;;;;;;;;;;;;;;;22.72;54.73;101229.19;7288915;19;154056;-58
2022/05/19 02:19:58;;;;;;;;;;;;;;;22.73;55.03;101227.22;7289205;19;153111;-59
2022/05/19 02:22:25;;;;;;;;;;;;;;;22.73;55.21;101222.41;7289150;19;153890;-58
2022/05/19 02:24:52;;;;;;;;;;;;;;;22.76;55.11;101229.41;7288781;19;154484;-59
2022/05/19 02:27:19;;;;;;;;;;;;;;;22.76;55.08;101229.41;7289719;19;151909;-59
2022/05/19 02:29:46;;;;;;;;;;;;;;;22.76;55.21;101229.41;7291646;19;152558;-59
2022/05/19 02:32:13;;;;;;;;;;;;;;;22.77;55.29;101233.88;7288617;19;152015;-58
2022/05/19 02:34:40;;;;;;;;;;;;;;;22.77;55.33;101247.97;7288544;19;153626;-58
2022/05/19 02:37:08;;;;;;;;;;;;;;;22.76;55.03;101251.94;7287546;19;153725;-59
2022/05/19 02:39:36;;;;;;;;;;;;;;;22.79;55.19;101265.41;7288677;19;151659;-59
2022/05/19 02:42:03;;;;;;;;;;;;;;;22.78;55.13;101264.56;7287975;19;152172;-58
2022/05/19 02:44:29;;;;;;;;;;;;;;;22.77;55.32;101264.84;7285173;19;151968;-59
2022/05/19 02:46:56;;;;;;;;;;;;;;;22.76;55.47;101282.94;7288224;19;151937;-59
2022/05/19 02:49:23;;;;;;;;;;;;;;;22.79;55.06;101276.66;7288307;19;152761;-59
2022/05/19 02:51:50;;;;;;;;;;;;;;;22.79;55.21;101273.84;7294400;19;153362;-59
2022/05/19 02:54:21;;;;;;;;;;;;;;;22.76;55.19;101277.31;7286098;19;153809;-59
2022/05/19 02:56:48;;;;;;;;;;;;;;;22.73;55.40;101273.13;7281985;19;151867;-59
2022/05/19 02:59:15;;;;;;;;;;;;;;;22.73;55.87;101275.09;7283501;19;152292;-59
2022/05/19 03:01:42;;;;;;;;;;;;;;;22.74;55.40;101282.41;7286569;19;152711;-58
2022/05/19 03:04:09;;;;;;;;;;;;;;;22.77;55.74;101290.22;7287345;19;153602;-58
2022/05/19 03:06:37;;;;;;;;;;;;;;;22.74;55.60;101293.69;7286848;19;151851;-58
2022/05/19 03:09:04;;;;;;;;;;;;;;;22.75;55.85;101296.19;7285269;19;151854;-58
2022/05/19 03:11:31;;;;;;;;;;;;;;;22.77;55.96;101301.47;7288041;19;153342;-59
2022/05/19 03:13:58;;;;;;;;;;;;;;;22.78;55.68;101298.38;7295078;19;151676;-58
2022/05/19 03:16:25;;;;;;;;;;;;;;;22.78;56.10;101306.81;7282526;19;154168;-57
2022/05/19 03:18:52;;;;;;;;;;;;;;;22.81;55.70;101313.78;7288746;19;151896;-59
2022/05/19 03:21:20;;;;;;;;;;;;;;;22.79;55.45;101321.75;7287202;19;152814;-59
2022/05/19 03:23:51;;;;;;;;;;;;;;;22.78;56.19;101325.69;7285371;19;151932;-59
2022/05/19 03:26:18;;;;;;;;;;;;;;;22.76;56.37;101326.00;7284819;19;151556;-59
2022/05/19 03:28:45;;;;;;;;;;;;;;;22.74;55.89;101328.31;7286508;19;154458;-59
2022/05/19 03:31:13;;;;;;;;;;;;;;;22.77;56.13;101340.94;7286516;19;153400;-58
2022/05/19 03:33:40;;;;;;;;;;;;;;;22.77;56.34;101340.94;7285688;19;152041;-58
2022/05/19 03:36:05;;;;;;;;;;;;;;;22.75;56.51;101329.16;7293099;19;151533;-59
2022/05/19 03:38:32;;;;;;;;;;;;;;;22.71;56.01;101331.78;7287283;19;151987;-59
2022/05/19 03:41:00;;;;;;;;;;;;;;;22.73;55.99;101342.72;7287088;19;153287;-59
2022/05/19 03:43:26;;;;;;;;;;;;;;;22.72;56.39;101329.75;7283819;19;152348;-58
2022/05/19 03:45:54;;;;;;;;;;;;;;;22.72;56.00;101316.50;7286386;19;151836;-59
2022/05/19 03:48:20;;;;;;;;;;;;;;;22.75;56.28;101306.63;7281941;19;151826;-58
2022/05/19 03:50:48;;;;;;;;;;;;;;;22.74;56.30;101299.31;7281446;19;151770;-59
2022/05/19 03:53:15;;;;;;;;;;;;;;;22.73;56.06;101308.91;7286884;19;152028;-58
2022/05/19 03:55:42;;;;;;;;;;;;;;;22.70;56.16;101320.81;7284452;19;151918;-58
2022/05/19 03:58:08;;;;;;;;;;;;;;;22.72;56.22;101341.03;7289023;19;151858;-58
2022/05/19 04:00:35;;;;;;;;;;;;;;;22.71;56.41;101333.75;7287481;19;152179;-58
2022/05/19 04:03:03;;;;;;;;;;;;;;;22.71;56.02;101361.91;7283139;19;152109;-59
2022/05/19 04:05:29;;;;;;;;;;;;;;;22.68;56.28;101368.97;7285699;19;151747;-58
2022/05/19 04:07:56;;;;;;;;;;;;;;;22.70;56.03;101369.53;7284008;19;152131;-58
2022/05/19 04:10:23;;;;;;;;;;;;;;;22.70;56.41;101363.91;7283357;19;152376;-58
2022/05/19 04:12:50;;;;;;;;;;;;;;;22.73;56.25;101366.06;7286322;19;151838;-58
2022/05/19 04:15:18;;;;;;;;;;;;;;;22.70;56.08;101363.91;7283772;19;152458;-58
2022/05/19 04:17:45;;;;;;;;;;;;;;;22.74;56.43;101358.47;7292285;19;153617;-58
2022/05/19 04:20:12;;;;;;;;;;;;;;;22.70;56.56;101361.09;7285113;19;152900;-58
2022/05/19 04:22:39;;;;;;;;;;;;;;;22.71;56.31;101364.75;7283084;19;154032;-58
2022/05/19 04:25:07;;;;;;;;;;;;;;;22.67;56.68;101367.28;7285574;19;151786;-58
2022/05/19 04:27:34;;;;;;;;;;;;;;;22.69;56.14;101364.16;7286118;19;153591;-58
2022/05/19 04:30:01;;;;;;;;;;;;;;;22.72;56.75;101364.41;7282262;19;153428;-58
2022/05/19 04:32:34;;;;;;;;;;;;;;;22.71;56.64;101365.56;7285572;19;151651;-58
2022/05/19 04:35:01;;;;;;;;;;;;;;;22.69;56.49;101367.00;7285226;19;152887;-58
2022/05/19 04:37:28;;;;;;;;;;;;;;;22.71;56.78;101385.28;7284588;19;154916;-58
2022/05/19 04:39:55;;;;;;;;;;;;;;;22.71;56.67;101385.28;7293355;19;151794;-58
2022/05/19 04:42:22;;;;;;;;;;;;;;;22.70;56.78;101383.63;7283531;19;153422;-58
2022/05/19 04:44:49;;;;;;;;;;;;;;;22.74;56.42;101379.03;7285596;19;151909;-58
2022/05/19 04:47:16;;;;;;;;;;;;;;;22.73;56.92;101382.16;7284820;19;152969;-59
2022/05/19 04:49:43;;;;;;;;;;;;;;;22.73;57.03;101379.31;7284082;19;153431;-58
2022/05/19 04:52:11;;;;;;;;;;;;;;;22.73;56.95;101379.31;7282450;19;151787;-58
2022/05/19 04:54:38;;;;;;;;;;;;;;;22.73;56.93;101384.97;7285601;19;152779;-58
2022/05/19 04:57:06;;;;;;;;;;;;;;;22.75;57.11;101396.78;7283264;19;154470;-58
2022/05/19 04:59:36;;;;;;;;;;;;;;;22.72;56.89;101386.94;7280109;19;151686;-58
2022/05/19 05:02:03;;;;;;;;;;;;;;;22.72;57.05;101405.81;7288795;19;152171;-58
2022/05/19 05:04:30;;;;;;;;;;;;;;;22.70;56.91;101402.50;7280238;19;151983;-58
2022/05/19 05:06:57;;;;;;;;;;;;;;;22.70;57.07;101399.69;7285314;19;153637;-58
2022/05/19 05:09:24;;;;;;;;;;;;;;;22.69;56.72;101406.44;7283047;19;153600;-59
2022/05/19 05:11:52;;;;;;;;;;;;;;;22.71;57.23;101407.00;7282631;19;152393;-59
2022/05/19 05:14:19;;;;;;;;;;;;;;;22.68;57.33;101399.13;7284068;19;152774;-59
2022/05/19 05:16:47;;;;;;;;;;;;;;;22.68;57.11;101404.75;7283384;19;154172;-58
2022/05/19 05:19:19;;;;;;;;;;;;;;;22.69;57.09;101397.97;7281943;19;152041;-59
2022/05/19 05:21:46;;;;;;;;;;;;;;;22.68;57.14;101401.94;7283901;19;153565;-58
2022/05/19 05:24:13;;;;;;;;;;;;;;;22.66;57.31;101399.44;7288186;19;152059;-59
2022/05/19 05:26:40;;;;;;;;;;;;;;;22.66;57.09;101418.31;7283993;19;152751;-58
2022/05/19 05:29:07;;;;;;;;;;;;;;;22.66;56.90;101416.34;7281958;19;154340;-58
2022/05/19 05:31:34;;;;;;;;;;;;;;;22.65;56.95;101416.66;7281787;19;152209;-59
2022/05/19 05:34:01;;;;;;;;;;;;;;;22.65;57.04;101411.00;7283293;19;153138;-59
2022/05/19 05:36:28;;;;;;;;;;;;;;;22.65;57.12;101419.47;7281413;19;153473;-59
2022/05/19 05:38:57;;;;;;;;;;;;;;;22.61;57.35;101411.66;7282740;19;152044;-59
2022/05/19 05:41:24;;;;;;;;;;;;;;;22.61;57.02;101414.47;7278497;19;151907;-58
2022/05/19 05:43:51;;;;;;;;;;;;;;;22.64;57.17;101413.00;7281992;19;153622;-58
2022/05/19 05:46:18;;;;;;;;;;;;;;;22.61;57.43;101411.66;7290740;19;152123;-58
2022/05/19 05:48:48;;;;;;;;;;;;;;;22.61;57.15;101406.00;7285103;19;154125;-58
2022/05/19 05:51:16;;;;;;;;;;;;;;;22.61;57.46;101402.34;7287776;19;151922;-58
2022/05/19 05:53:44;;;;;;;;;;;;;;;22.60;57.30;101420.41;7288568;19;153478;-58
2022/05/19 05:56:13;;;;;;;;;;;;;;;22.60;57.27;101421.25;7289522;19;153759;-59
2022/05/19 05:58:41;;;;;;;;;;;;;;;22.61;57.22;101428.53;7287993;19;152242;-58
2022/05/19 06:01:09;;;;;;;;;;;;;;;22.61;57.39;101431.38;7290137;19;152559;-58
2022/05/19 06:03:36;;;;;;;;;;;;;;;22.61;57.24;101427.72;7286368;19;152552;-58
2022/05/19 06:06:03;;;;;;;;;;;;;;;22.62;57.23;101435.03;7295934;19;151847;-58
2022/05/19 06:08:30;;;;;;;;;;;;;;;22.62;57.49;101443.47;7289163;19;154152;-58
2022/05/19 06:10:59;;;;;;;;;;;;;;;22.60;57.24;101463.50;7286705;19;151805;-58
2022/05/19 06:13:27;;;;;;;;;;;;;;;22.64;57.13;101489.03;7288280;19;151451;-57
2022/05/19 06:15:54;;;;;;;;;;;;;;;22.61;57.29;101503.75;7288663;19;154050;-58
2022/05/19 06:18:21;;;;;;;;;;;;;;;22.68;57.61;101501.38;7287722;19;151643;-57
2022/05/19 06:20:49;;;;;;;;;;;;;;;22.71;57.23;101483.06;7290371;19;152827;-58
2022/05/19 06:23:16;;;;;;;;;;;;;;;22.68;57.02;101476.00;7288061;19;154583;-58
2022/05/19 06:25:44;;;;;;;;;;;;;;;22.67;56.93;101479.97;7290526;19;151761;-58
2022/05/19 06:28:12;;;;;;;;;;;;;;;22.66;57.18;101500.00;7292993;19;152149;-58
2022/05/19 06:30:39;;;;;;;;;;;;;;;22.67;57.23;101529.88;7284535;19;152098;-58
2022/05/19 06:33:06;;;;;;;;;;;;;;;22.65;57.08;101530.16;7288202;19;152060;-58
2022/05/19 06:35:33;;;;;;;;;;;;;;;22.66;56.95;101522.56;7285057;19;153170;-58
2022/05/19 06:38:04;;;;;;;;;;;;;;;22.63;56.53;101504.28;7288744;19;152117;-58
2022/05/19 06:40:33;;;;;;;;;;;;;;;22.61;56.90;101490.50;7287616;19;152982;-58
2022/05/19 06:43:00;;;;;;;;;;;;;;;22.63;57.00;101538.06;7286354;19;153455;-58
2022/05/19 06:47:56;;;;;;;;;;;;;;;22.54;53.70;101525.84;7286161;19;153380;-59
2022/05/19 06:50:24;;;;;;;;;;;;;;;22.40;54.35;101489.19;7293738;19;153406;-59
2022/05/19 06:52:52;;;;;;;;;;;;;;;22.41;53.79;101437.38;7284847;19;152333;-59
2022/05/19 06:55:19;;;;;;;;;;;;;;;22.38;53.54;101423.91;7284332;19;152371;-59
2022/05/19 06:57:47;;;;;;;;;;;;;;;22.32;53.33;101430.78;7287557;19;151512;-59
2022/05/19 07:00:16;;;;;;;;;;;;;;;22.18;54.37;101438.34;7282588;19;152916;-59
2022/05/19 07:02:45;;;;;;;;;;;;;;;22.17;53.67;101433.84;7285967;19;153443;-59
2022/05/19 07:05:13;;;;;;;;;;;;;;;22.14;53.96;101428.84;7288335;19;151581;-59
2022/05/19 07:07:40;;;;;;;;;;;;;;;22.10;53.59;101445.50;7283640;19;151739;-59
2022/05/19 07:10:09;;;;;;;;;;;;;;;21.77;55.18;101485.13;7284045;19;153767;-59
2022/05/19 07:12:34;;;;;;;;;;;;;;;21.60;55.51;101505.34;7296063;19;151873;-59
2022/05/19 07:15:01;;;;;;;;;;;;;;;21.56;55.17;101510.72;7286089;19;153357;-59
2022/05/19 07:17:30;;;;;;;;;;;;;;;21.50;55.72;101495.06;7287798;19;151532;-59
2022/05/19 07:22:43;;;;;;;;;;;;;;;21.47;55.73;101498.47;7287383;19;153598;-59
2022/05/19 07:27:37;;;;;;;;;;;;;;;21.62;55.73;101498.25;7283606;19;153391;-64
2022/05/19 07:30:04;;;;;;;;;;;;;;;21.69;55.62;101507.16;7285332;19;153966;-59
2022/05/19 07:32:31;;;;;;;;;;;;;;;21.74;55.46;101514.69;7286933;19;151663;-59
2022/05/19 07:34:58;;;;;;;;;;;;;;;21.77;55.20;101518.88;7293598;19;152774;-59
2022/05/19 07:37:27;;;;;;;;;;;;;;;21.78;55.29;101498.88;7285527;19;151497;-59
2022/05/19 07:39:54;;;;;;;;;;;;;;;21.81;55.47;101501.06;7286374;19;153258;-59
2022/05/19 07:42:21;;;;;;;;;;;;;;;21.82;55.32;101508.38;7286148;19;152845;-59
2022/05/19 07:44:49;;;;;;;;;;;;;;;21.83;55.14;101517.66;7285904;19;152237;-58
2022/05/19 07:47:17;;;;;;;;;;;;;;;21.83;55.16;101526.94;7287098;19;153307;-58
2022/05/19 07:49:44;;;;;;;;;;;;;;;21.82;54.87;101544.97;7286111;19;154075;-59
2022/05/19 07:52:11;;;;;;;;;;;;;;;21.80;54.98;101536.00;7282550;19;151710;-58
2022/05/19 07:54:39;;;;;;;;;;;;;;;21.80;55.13;101526.72;7285788;19;152668;-58
2022/05/19 07:57:06;;;;;;;;;;;;;;;21.81;55.10;101534.00;7288466;19;152734;-59
2022/05/19 07:59:33;;;;;;;;;;;;;;;21.81;54.85;101543.28;7281256;19;152645;-59
2022/05/19 08:02:01;;;;;;;;;;;;;;;21.81;54.87;101553.69;7284320;19;154707;-59
2022/05/19 08:04:28;;;;;;;;;;;;;;;21.85;54.84;101551.97;7286623;19;151863;-59
2022/05/19 08:06:56;;;;;;;;;;;;;;;21.82;54.87;101542.16;7286091;19;152566;-59
2022/05/19 08:11:54;;;;;;;;;;;;;;;21.87;54.47;101544.03;7281067;19;152094;-59
2022/05/19 08:17:11;;;;;;;;;;;;;;;21.87;54.82;101541.22;7291777;19;155828;-59
2022/05/19 08:19:38;;;;;;;;;;;;;;;21.88;54.46;101549.38;7286539;19;153158;-58
2022/05/19 08:22:28;;;;;;;;;;;;;;;21.88;54.42;101548.53;7284081;19;153332;-59
2022/05/19 08:25:17;;;;;;;;;;;;;;;21.89;54.41;101553.03;7284055;19;151450;-59
2022/05/19 08:27:47;;;;;;;;;;;;;;;21.91;54.00;101550.75;7285576;19;152451;-58
2022/05/19 08:30:14;;;;;;;;;;;;;;;21.93;54.30;101571.00;7285137;19;153371;-59
2022/05/19 08:32:42;;;;;;;;;;;;;;;21.96;53.70;101571.25;7282632;19;152182;-59
2022/05/19 08:35:09;;;;;;;;;;;;;;;21.93;54.05;101580.28;7286279;19;152755;-59
2022/05/19 08:37:37;;;;;;;;;;;;;;;21.99;53.75;101586.66;7284335;19;153963;-59
2022/05/19 08:40:04;;;;;;;;;;;;;;;21.97;53.94;101578.53;7290576;19;152143;-59
2022/05/19 08:42:31;;;;;;;;;;;;;;;22.01;53.63;101590.03;7283667;19;153893;-59
2022/05/19 08:44:58;;;;;;;;;;;;;;;21.96;53.49;101593.75;7284815;19;152146;-59
2022/05/19 08:47:27;;;;;;;;;;;;;;;22.00;53.73;101600.44;7285789;19;153641;-59
2022/05/19 08:49:57;;;;;;;;;;;;;;;22.00;53.34;101614.50;7283580;19;153471;-59
2022/05/19 08:52:25;;;;;;;;;;;;;;;22.01;53.71;101620.97;7283020;19;151767;-58
2022/05/19 08:54:53;;;;;;;;;;;;;;;22.01;53.58;101618.16;7282546;19;151731;-58
2022/05/19 08:57:23;;;;;;;;;;;;;;;22.02;53.46;101625.47;7281852;19;154262;-59
2022/05/19 08:59:53;;;;;;;;;;;;;;;22.00;53.53;101645.47;7284595;19;151964;-59
2022/05/19 09:02:23;;;;;;;;;;;;;;;22.03;53.29;101638.41;7291748;19;152767;-59
2022/05/19 09:10:18;;;;;;;;;;;;;;;22.03;52.97;101641.22;7283378;19;153801;-59
2022/05/19 09:12:50;;;;;;;;;;;;;;;22.05;53.02;101631.34;7282065;19;151544;-59
2022/05/19 09:15:18;;;;;;;;;;;;;;;22.04;53.05;101615.56;7281639;19;151858;-59
2022/05/19 09:17:46;;;;;;;;;;;;;;;22.06;52.99;101610.50;7283173;19;154145;-59
2022/05/19 09:20:20;;;;;;;;;;;;;;;22.07;52.86;101606.56;7285563;19;151966;-59
2022/05/19 09:22:47;;;;;;;;;;;;;;;22.14;52.44;101628.69;7284133;19;152605;-59
2022/05/19 09:25:18;;;;;;;;;;;;;;;22.12;52.60;101616.91;7298003;19;154123;-59
2022/05/19 09:27:48;;;;;;;;;;;;;;;22.11;52.91;101618.88;7290126;19;153514;-60
2022/05/19 09:30:29;;;;;;;;;;;;;;;22.14;52.36;101617.41;7289441;19;153933;-59
2022/05/19 09:32:58;;;;;;;;;;;;;;;22.12;52.87;101630.97;7260786;19;152308;-58
2022/05/19 09:35:29;;;;;;;;;;;;;;;22.10;52.81;101633.25;7280245;19;154221;-60
2022/05/19 09:38:13;;;;;;;;;;;;;;;22.14;52.57;101632.34;7284808;19;153276;-59
2022/05/19 09:40:42;;;;;;;;;;;;;;;22.15;52.68;101633.16;7289865;19;151721;-59
2022/05/19 09:43:27;;;;;;;;;;;;;;;22.15;52.64;101627.53;7288541;19;152696;-59
2022/05/19 09:45:56;;;;;;;;;;;;;;;22.14;52.79;101631.50;7287372;19;152253;-59
2022/05/19 09:48:27;;;;;;;;;;;;;;;22.15;52.94;101622.75;7291814;19;151819;-59
2022/05/19 09:51:02;;;;;;;;;;;;;;;22.18;52.38;101629.75;7288552;19;152557;-58
2022/05/19 09:53:36;;;;;;;;;;;;;;;22.24;52.51;101636.97;7288153;19;152222;-59
2022/05/19 09:56:09;;;;;;;;;;;;;;;22.27;52.43;101638.34;7289333;19;152788;-60
2022/05/19 09:58:38;;;;;;;;;;;;;;;22.29;52.44;101636.91;7282876;19;153201;-59
2022/05/19 10:01:08;;;;;;;;;;;;;;;22.25;52.30;101647.13;7289044;19;152064;-59
2022/05/19 10:03:38;;;;;;;;;;;;;;;22.20;52.23;101643.53;7286945;19;153771;-59
2022/05/19 10:06:07;;;;;;;;;;;;;;;22.21;52.67;101643.22;7288120;19;153367;-58
2022/05/19 10:08:35;;;;;;;;;;;;;;;22.18;52.19;101653.09;7285634;19;151894;-59
2022/05/19 10:11:03;;;;;;;;;;;;;;;22.24;52.29;101653.88;7295734;19;152846;-58
2022/05/19 10:16:07;;;;;;;;;;;;;;;22.31;51.96;101648.69;7288253;19;153444;-59
2022/05/19 10:18:38;;;;;;;;;;;;;;;22.29;51.74;101652.97;7284690;19;154180;-59
2022/05/19 10:21:14;;;;;;;;;;;;;;;22.25;51.78;101655.56;7289284;19;151744;-59
2022/05/19 10:23:44;;;;;;;;;;;;;;;22.26;51.74;101654.38;7287470;19;152667;-58
2022/05/19 10:26:15;;;;;;;;;;;;;;;22.25;51.59;101647.13;7287365;19;153970;-59
2022/05/19 10:31:18;;;;;;;;;;;;;;;22.28;51.46;101645.66;7294355;19;152560;-58
2022/05/19 10:33:49;;;;;;;;;;;;;;;22.31;51.65;101653.47;7285820;19;152021;-59
2022/05/19 10:36:23;;;;;;;;;;;;;;;22.29;51.27;101653.81;7284495;19;151898;-59
2022/05/19 10:39:06;;;;;;;;;;;;;;;22.27;51.60;101653.25;7285736;19;153450;-59
2022/05/19 10:41:35;;;;;;;;;;;;;;;22.25;51.39;101640.63;7288344;19;151549;-59
2022/05/19 10:44:05;;;;;;;;;;;;;;;22.27;51.42;101643.97;7288094;19;152994;-59
2022/05/19 10:46:41;;;;;;;;;;;;;;;22.26;51.37;101631.88;7287053;19;154561;-59
2022/05/19 10:49:12;;;;;;;;;;;;;;;22.30;51.15;101632.13;7287077;19;151905;-59
2022/05/19 10:51:42;;;;;;;;;;;;;;;22.37;50.99;101626.94;7286848;19;151689;-58
2022/05/19 10:54:11;;;;;;;;;;;;;;;22.39;51.16;101628.31;7292074;19;152445;-59
2022/05/19 10:56:43;;;;;;;;;;;;;;;22.45;50.69;101624.25;7287545;19;152855;-59
2022/05/19 10:59:11;;;;;;;;;;;;;;;22.51;50.43;101628.69;7283217;19;154897;-59
2022/05/19 11:01:41;;;;;;;;;;;;;;;22.53;50.61;101629.19;7286611;19;152161;-59
2022/05/19 11:04:11;;;;;;;;;;;;;;;22.56;50.52;101634.25;7288184;19;152725;-59
2022/05/19 11:06:41;;;;;;;;;;;;;;;22.60;49.96;101640.94;7285877;19;153439;-59
2022/05/19 11:09:13;;;;;;;;;;;;;;;22.65;50.20;101637.19;7284441;19;152010;-59
2022/05/19 11:11:47;;;;;;;;;;;;;;;22.66;49.81;101636.06;7286369;19;151782;-58
2022/05/19 11:14:16;;;;;;;;;;;;;;;22.60;49.71;101640.94;7283582;19;152953;-59
2022/05/19 11:16:50;;;;;;;;;;;;;;;22.64;50.00;101638.34;7291083;19;151863;-59
2022/05/19 11:19:20;;;;;;;;;;;;;;;22.65;49.76;101633.53;7284946;19;153864;-59
2022/05/19 11:21:52;;;;;;;;;;;;;;;22.71;49.88;101632.38;7286670;19;151671;-58
2022/05/19 11:24:22;;;;;;;;;;;;;;;22.71;49.40;101630.38;7284188;19;153943;-59
2022/05/19 11:26:57;;;;;;;;;;;;;;;22.70;49.51;101633.50;7285938;19;153752;-59
2022/05/19 11:29:27;;;;;;;;;;;;;;;22.73;49.25;101636.53;7286169;19;151586;-58
2022/05/19 11:31:55;;;;;;;;;;;;;;;22.74;49.12;101643.00;7286480;19;151729;-59
2022/05/19 11:34:23;;;;;;;;;;;;;;;22.75;49.32;101639.91;7286095;19;154120;-59
2022/05/19 11:36:54;;;;;;;;;;;;;;;22.80;49.01;101639.81;7281775;19;153331;-59
2022/05/19 11:39:24;;;;;;;;;;;;;;;22.77;49.16;101648.03;7293277;19;152773;-58
2022/05/19 11:41:53;;;;;;;;;;;;;;;22.75;48.50;101642.72;7283569;19;151843;-59
2022/05/19 11:44:25;;;;;;;;;;;;;;;22.76;48.81;101652.00;7284188;19;153451;-59
2022/05/19 11:46:52;;;;;;;;;;;;;;;22.77;48.50;101645.19;7283580;19;153483;-59
2022/05/19 11:56:55;;;;;;;;;;;;;;;22.82;48.02;101639.50;7285242;19;151999;-59
2022/05/19 11:59:22;;;;;;;;;;;;;;;22.78;48.63;101641.25;7283696;19;153278;-59
2022/05/19 12:01:49;;;;;;;;;;;;;;;22.77;48.85;101646.03;7292438;19;153256;-59
2022/05/19 12:04:16;;;;;;;;;;;;;;;22.75;48.39;101655.97;7287820;19;153161;-59
2022/05/19 12:06:46;;;;;;;;;;;;;;;22.73;48.48;101642.16;7284480;19;153996;-59
2022/05/19 12:09:16;;;;;;;;;;;;;;;22.79;48.76;101640.94;7284884;19;151835;-59
2022/05/19 12:11:52;;;;;;;;;;;;;;;22.80;48.54;101645.44;7285018;19;151754;-59
2022/05/19 12:14:31;;;;;;;;;;;;;;;22.79;48.41;101638.13;7282730;19;152128;-60
2022/05/19 12:17:00;;;;;;;;;;;;;;;22.78;48.35;101635.63;7282495;19;152009;-59
2022/05/19 12:19:30;;;;;;;;;;;;;;;22.79;48.32;101637.28;7286414;19;151575;-59
2022/05/19 12:21:57;;;;;;;;;;;;;;;22.81;48.06;101635.00;7281833;19;152437;-60
2022/05/19 12:24:26;;;;;;;;;;;;;;;22.79;48.11;101632.50;7293880;19;151537;-59
2022/05/19 12:26:59;;;;;;;;;;;;;;;22.79;48.05;101631.66;7283962;19;154069;-59
2022/05/19 12:29:31;;;;;;;;;;;;;;;22.81;47.49;101635.00;7285676;19;151996;-59
2022/05/19 12:32:07;;;;;;;;;;;;;;;22.80;47.77;101634.19;7285297;19;153294;-58
2022/05/19 12:34:33;;;;;;;;;;;;;;;22.81;47.37;101635.00;7284263;19;152115;-59
2022/05/19 12:37:03;;;;;;;;;;;;;;;22.84;47.35;101632.41;7284098;19;151657;-58
2022/05/19 12:39:40;;;;;;;;;;;;;;;22.82;46.98;101631.88;7284712;19;153679;-58
2022/05/19 12:42:35;;;;;;;;;;;;;;;22.81;46.91;101627.38;7283373;19;156671;-59
2022/05/19 12:45:06;;;;;;;;;;;;;;;22.82;47.13;101628.22;7292348;19;151531;-58
2022/05/19 12:47:34;;;;;;;;;;;;;;;22.82;46.48;101640.31;7283270;19;154444;-59
2022/05/19 12:50:01;;;;;;;;;;;;;;;22.81;46.23;101632.16;7285640;19;151408;-59
2022/05/19 12:52:29;;;;;;;;;;;;;;;22.79;46.61;101632.50;7280227;19;151689;-59
2022/05/19 12:54:59;;;;;;;;;;;;;;;22.80;46.28;101630.53;7283466;19;154309;-60
2022/05/19 12:57:28;;;;;;;;;;;;;;;22.80;46.80;101634.19;7288080;19;151839;-59
2022/05/19 13:00:05;;;;;;;;;;;;;;;22.82;46.65;101633.84;7288564;19;153648;-59
2022/05/19 13:02:37;;;;;;;;;;;;;;;22.82;46.48;101636.66;7288783;19;153261;-59
2022/05/19 13:05:12;;;;;;;;;;;;;;;22.82;46.80;101636.66;7291550;19;151554;-59